Time;durP1;ratioP1;P1;durP2;ratioP2;P2;SDS_P1;SDS_P2;PMS_P1;PMS_P2;Temp;Humidity;BMP_temperature;BMP_pressure;BME280_temperature;BME280_humidity;BME280_pressure;Samples;Min_cycle;Max_cycle;Signal;HPM_P1;HPM_P2
2022/04/14 04:31:32;;;;;;;;;14.25;12.25;;;;;14.91;71.33;101684.44;1423275;26;45913;-74
2022/04/14 04:33:57;;;;;;;;;16.25;14.00;;;;;14.90;71.24;101688.09;5034348;28;45443;-74
2022/04/14 04:36:23;;;;;;;;;15.75;12.00;;;;;14.84;71.46;101702.78;5035068;28;45420;-74
2022/04/14 04:38:48;;;;;;;;;12.00;11.50;;;;;14.80;71.83;101714.66;5034914;28;45392;-73
2022/04/14 04:41:13;;;;;;;;;14.00;10.75;;;;;14.69;71.95;101712.50;5035055;28;46248;-74
2022/04/14 04:43:39;;;;;;;;;14.00;9.75;;;;;14.65;71.74;101710.88;5034233;28;45444;-74
2022/04/14 04:46:04;;;;;;;;;14.75;10.75;;;;;14.70;71.51;101713.38;5035013;28;45573;-73
2022/04/14 04:48:30;;;;;;;;;17.50;12.25;;;;;14.67;72.27;101722.47;5034569;28;45340;-73
2022/04/14 04:50:56;;;;;;;;;11.00;10.00;;;;;14.55;72.24;101716.75;5034805;28;45944;-74
2022/04/14 04:53:21;;;;;;;;;13.50;12.00;;;;;14.60;72.18;101734.50;5033962;28;45473;-74
2022/04/14 04:55:47;;;;;;;;;15.25;11.00;;;;;14.61;72.45;101724.59;5035100;28;45497;-75
2022/04/14 04:58:12;;;;;;;;;15.00;11.50;;;;;14.64;72.42;101732.53;5034205;28;45581;-74
2022/04/14 05:00:38;;;;;;;;;14.50;14.50;;;;;14.64;71.99;101729.81;5034536;28;45376;-75
2022/04/14 05:03:11;;;;;;;;;18.00;17.50;;;;;14.63;71.63;101715.44;5034001;28;45470;-75
2022/04/14 05:05:37;;;;;;;;;14.75;14.50;;;;;14.71;71.43;101725.91;5034123;28;45327;-75
2022/04/14 05:08:05;;;;;;;;;16.00;14.00;;;;;14.73;71.80;101732.97;5035319;28;45517;-75
2022/04/14 05:10:31;;;;;;;;;16.50;16.50;;;;;14.65;72.00;101729.75;5037761;28;45423;-74
2022/04/14 05:12:56;;;;;;;;;17.25;14.50;;;;;14.47;72.25;101709.03;5034048;28;45549;-77
2022/04/14 05:15:21;;;;;;;;;18.25;15.50;;;;;14.52;72.50;101723.19;5034753;28;45498;-77
2022/04/14 05:17:47;;;;;;;;;20.50;17.25;;;;;14.46;72.71;101719.91;5034077;28;45462;-73
2022/04/14 05:20:12;;;;;;;;;21.50;18.25;;;;;14.47;72.76;101719.81;5034447;28;45408;-73
2022/04/14 05:22:38;;;;;;;;;20.25;17.25;;;;;14.47;72.67;101725.22;5034215;28;45308;-73
2022/04/14 05:25:04;;;;;;;;;16.00;14.00;;;;;14.44;72.54;101733.47;5034394;28;45262;-77
2022/04/14 05:27:29;;;;;;;;;17.75;16.25;;;;;14.42;72.81;101729.09;5033000;28;45398;-74
2022/04/14 05:29:55;;;;;;;;;17.00;16.75;;;;;14.42;72.59;101727.25;5016322;28;46985;-78
2022/04/14 05:32:21;;;;;;;;;18.00;17.00;;;;;14.42;72.88;101724.56;5033705;28;45491;-75
2022/04/14 05:34:46;;;;;;;;;17.00;15.50;;;;;14.48;72.62;101743.16;5034416;28;45390;-74
2022/04/14 05:37:11;;;;;;;;;16.75;15.75;;;;;14.45;72.55;101740.63;5033783;28;45395;-73
2022/04/14 05:39:37;;;;;;;;;16.75;15.75;;;;;14.42;72.72;101737.19;5033710;28;45946;-76
2022/04/14 05:42:02;;;;;;;;;17.50;15.00;;;;;14.51;72.24;101753.81;5016498;28;45542;-73
2022/04/14 05:44:28;;;;;;;;;16.25;14.75;;;;;14.44;72.29;101754.19;5034380;28;45563;-72
2022/04/14 05:46:53;;;;;;;;;16.25;13.25;;;;;14.47;72.74;101763.00;5034099;28;45463;-75
2022/04/14 05:49:18;;;;;;;;;22.50;18.00;;;;;14.54;72.50;101755.53;5034159;28;45440;-74
2022/04/14 05:51:44;;;;;;;;;18.75;14.50;;;;;14.44;72.27;101741.56;5033648;28;45398;-72
2022/04/14 05:54:09;;;;;;;;;15.25;13.75;;;;;14.52;72.16;101758.28;5033840;28;45568;-75
2022/04/14 05:56:35;;;;;;;;;16.50;16.00;;;;;14.57;72.40;101750.84;5017352;28;46236;-77
2022/04/14 05:59:00;;;;;;;;;18.00;18.00;;;;;14.65;72.28;101758.56;5032875;28;45374;-75
2022/04/14 06:01:25;;;;;;;;;22.25;16.25;;;;;14.64;71.75;101746.91;5036994;28;45450;-76
2022/04/14 06:03:51;;;;;;;;;17.25;16.75;;;;;14.64;72.00;101762.22;5036460;28;45392;-74
2022/04/14 06:06:16;;;;;;;;;18.75;16.75;;;;;14.63;72.13;101765.88;5036510;28;45293;-74
2022/04/14 06:08:43;;;;;;;;;19.00;16.25;;;;;14.66;72.07;101757.63;5036050;28;45196;-75
2022/04/14 06:11:09;;;;;;;;;13.50;13.50;;;;;14.63;72.17;101747.00;5018534;28;45286;-74
2022/04/14 06:13:34;;;;;;;;;23.00;17.00;;;;;14.67;71.84;101748.59;5036194;28;45462;-75
2022/04/14 06:16:00;;;;;;;;;17.50;17.50;;;;;14.71;71.62;101761.00;5018323;28;45579;-74
2022/04/14 06:18:25;;;;;;;;;25.50;21.25;;;;;14.65;71.39;101753.16;5035839;28;45975;-76
2022/04/14 06:20:53;;;;;;;;;18.00;16.75;;;;;14.66;71.54;101755.81;5036404;28;45368;-75
2022/04/14 06:23:19;;;;;;;;;20.00;19.00;;;;;14.69;71.55;101761.06;5036625;28;45323;-75
2022/04/14 06:25:49;;;;;;;;;22.75;21.00;;;;;14.65;71.46;101766.66;5018546;28;46736;-75
2022/04/14 06:28:15;;;;;;;;;24.25;19.75;;;;;14.67;71.91;101781.84;5035141;28;45785;-76
2022/04/14 06:30:40;;;;;;;;;22.75;19.00;;;;;14.67;72.14;101783.69;5036170;28;45514;-76
2022/04/14 06:33:06;;;;;;;;;25.00;23.25;;;;;14.72;71.56;101785.19;5025642;28;45514;-73
2022/04/14 06:35:32;;;;;;;;;18.50;18.50;;;;;14.77;71.73;101798.50;5036062;28;45514;-75
2022/04/14 06:37:57;;;;;;;;;25.75;23.00;;;;;14.70;71.44;101789.81;5036482;28;45633;-77
2022/04/14 06:40:23;;;;;;;;;23.75;22.50;;;;;14.75;71.44;101803.09;5036352;28;45372;-75
2022/04/14 06:42:49;;;;;;;;;23.50;20.75;;;;;14.73;71.52;101799.56;5035401;28;45454;-76
2022/04/14 06:45:19;;;;;;;;;27.75;22.50;;;;;14.70;71.76;101795.22;5035470;28;45494;-76
2022/04/14 06:47:44;;;;;;;;;31.25;28.25;;;;;14.80;71.52;101808.28;5034271;28;45425;-77
2022/04/14 06:50:10;;;;;;;;;26.00;24.75;;;;;14.78;71.35;101800.25;5035428;28;45411;-77
2022/04/14 06:52:39;;;;;;;;;21.25;20.75;;;;;14.83;71.19;101794.63;5036120;28;45295;-75
2022/04/14 06:55:06;;;;;;;;;29.25;25.50;;;;;14.85;71.31;101788.22;5035681;28;45599;-75
2022/04/14 06:57:31;;;;;;;;;28.50;26.00;;;;;14.95;70.93;101802.16;5035929;28;46960;-75
2022/04/14 06:59:57;;;;;;;;;37.50;30.00;;;;;14.99;70.97;101795.66;5035389;28;45331;-75
2022/04/14 07:02:22;;;;;;;;;25.25;24.25;;;;;15.00;70.83;101792.00;5036219;28;45217;-75
2022/04/14 07:04:48;;;;;;;;;25.50;24.75;;;;;15.14;70.75;101814.69;5035165;28;46017;-77
2022/04/14 07:07:14;;;;;;;;;26.50;26.50;;;;;15.15;70.44;101791.28;5035336;28;45600;-76
2022/04/14 07:09:39;;;;;;;;;31.00;27.75;;;;;15.26;70.48;101806.97;5035394;28;45387;-76
2022/04/14 07:12:06;;;;;;;;;29.75;25.75;;;;;15.23;69.88;101796.28;5035570;28;45594;-77
2022/04/14 07:14:32;;;;;;;;;28.00;28.00;;;;;15.32;70.03;101812.94;5035377;28;45448;-75
2022/04/14 07:16:58;;;;;;;;;28.50;25.25;;;;;15.38;70.02;101812.66;5035198;28;46029;-76
2022/04/14 07:19:24;;;;;;;;;21.50;19.75;;;;;15.44;69.47;101811.47;5035253;28;45470;-75
2022/04/14 07:21:50;;;;;;;;;25.00;23.50;;;;;15.47;69.55;101809.50;5035815;28;45562;-76
2022/04/14 07:24:16;;;;;;;;;34.75;28.25;;;;;15.51;69.09;101810.22;5034953;28;45277;-75
2022/04/14 07:26:41;;;;;;;;;33.75;31.00;;;;;15.42;68.87;101814.25;5035275;28;45452;-76
2022/04/14 07:29:07;;;;;;;;;26.00;24.75;;;;;15.34;69.65;101808.34;5033904;28;45465;-75
2022/04/14 07:31:32;;;;;;;;;27.75;25.00;;;;;15.42;69.65;101821.47;5016145;28;45404;-77
2022/04/14 07:33:58;;;;;;;;;27.25;24.75;;;;;15.44;69.25;101819.59;5033098;28;45574;-77
2022/04/14 07:36:25;;;;;;;;;32.75;29.50;;;;;15.42;69.26;101813.38;5033881;28;45423;-76
2022/04/14 07:38:50;;;;;;;;;40.50;28.75;;;;;15.37;69.28;101808.22;5032591;28;45456;-77
2022/04/14 07:41:16;;;;;;;;;29.00;27.25;;;;;15.40;69.08;101817.97;5034120;28;45504;-76
2022/04/14 07:43:42;;;;;;;;;32.00;28.75;;;;;15.30;69.78;101814.88;5033313;28;46362;-75
2022/04/14 07:46:07;;;;;;;;;30.50;27.00;;;;;15.24;69.69;101815.13;5040020;28;46186;-76
2022/04/14 07:48:33;;;;;;;;;32.75;31.75;;;;;15.24;69.91;101816.97;5036530;28;45229;-77
2022/04/14 07:51:01;;;;;;;;;34.50;30.25;;;;;15.19;70.03;101814.50;5037045;28;45496;-77
2022/04/14 07:53:26;;;;;;;;;32.50;30.75;;;;;15.33;69.78;101827.31;5039432;28;45610;-76
2022/04/14 07:55:52;;;;;;;;;39.25;32.50;;;;;15.34;69.62;101835.38;5040423;28;46188;-77
2022/04/14 07:58:17;;;;;;;;;33.25;31.50;;;;;15.34;69.67;101824.56;5041178;28;45422;-79
2022/04/14 08:00:43;;;;;;;;;38.75;29.50;;;;;15.45;69.48;101824.03;5039933;28;45331;-76
2022/04/14 08:03:09;;;;;;;;;39.50;33.00;;;;;15.45;69.39;101814.13;5041267;28;45234;-76
2022/04/14 08:05:38;;;;;;;;;32.25;30.75;;;;;15.58;69.03;101824.34;5028235;28;45296;-76
2022/04/14 08:08:08;;;;;;;;;31.25;27.75;;;;;15.66;69.05;101832.94;5038815;28;45376;-77
2022/04/14 08:10:34;;;;;;;;;36.50;32.50;;;;;15.66;68.82;101816.72;5036967;28;45356;-75
2022/04/14 08:13:00;;;;;;;;;34.25;30.50;;;;;15.85;68.56;101826.53;5035324;28;46316;-78
2022/04/14 08:15:27;;;;;;;;;37.25;32.00;;;;;15.94;68.46;101827.91;5037304;28;46462;-77
2022/04/14 08:17:54;;;;;;;;;32.25;30.75;;;;;16.00;68.14;101819.47;5038654;28;45429;-77
2022/04/14 08:20:19;;;;;;;;;37.50;32.00;;;;;16.12;67.78;101823.38;5038702;28;45363;-76
2022/04/14 08:22:47;;;;;;;;;37.75;33.75;;;;;16.21;67.35;101812.09;5039846;28;45626;-77
2022/04/14 08:25:15;;;;;;;;;42.00;36.00;;;;;16.34;66.93;101829.41;5040039;28;46041;-75
2022/04/14 08:27:40;;;;;;;;;36.50;31.25;;;;;16.42;67.16;101824.47;5039387;28;45296;-76
2022/04/14 08:30:08;;;;;;;;;36.00;33.00;;;;;16.52;66.57;101832.97;5042951;28;45279;-77
2022/04/14 08:32:35;;;;;;;;;38.50;33.50;;;;;16.61;66.17;101827.97;5041587;28;45824;-77
2022/04/14 08:35:02;;;;;;;;;43.25;34.50;;;;;16.69;65.79;101827.56;5040559;28;45618;-77
2022/04/14 08:37:28;;;;;;;;;43.75;36.75;;;;;16.78;65.21;101837.91;5040638;28;45416;-76
2022/04/14 08:39:53;;;;;;;;;31.50;23.50;;;;;16.85;65.65;101833.91;5034942;28;45396;-77
2022/04/14 08:42:25;;;;;;;;;39.50;34.50;;;;;16.93;65.53;101825.34;5037557;28;45434;-76
2022/04/14 08:45:00;;;;;;;;;40.75;35.25;;;;;17.00;64.54;101832.19;5032924;28;45496;-77
2022/04/14 08:47:28;;;;;;;;;28.00;27.00;;;;;17.06;64.69;101826.44;5039955;28;45369;-79
2022/04/14 08:49:55;;;;;;;;;41.00;33.50;;;;;17.12;63.30;101828.78;5038039;28;46543;-77
2022/04/14 08:52:21;;;;;;;;;40.25;32.50;;;;;17.14;62.64;101832.28;5020117;28;47331;-77
2022/04/14 08:54:49;;;;;;;;;43.75;32.00;;;;;17.19;62.79;101826.59;5040193;28;45347;-77
2022/04/14 08:57:15;;;;;;;;;37.75;33.00;;;;;17.25;63.10;101839.84;5040613;28;45516;-75
2022/04/14 08:59:45;;;;;;;;;31.75;30.00;;;;;17.29;63.13;101839.56;5037916;28;45505;-76
2022/04/14 09:02:17;;;;;;;;;31.25;29.50;;;;;17.34;62.88;101837.47;5034019;28;45348;-76
2022/04/14 09:04:43;;;;;;;;;29.25;25.50;;;;;17.39;62.40;101834.50;5037307;28;45538;-77
2022/04/14 09:07:13;;;;;;;;;37.00;30.75;;;;;17.41;61.07;101835.28;5039980;28;45396;-77
2022/04/14 09:09:39;;;;;;;;;33.25;25.25;;;;;17.42;61.33;101836.16;5040038;28;45395;-79
2022/04/14 09:12:06;;;;;;;;;33.50;28.75;;;;;17.46;61.29;101835.00;5037508;28;45676;-76
2022/04/14 09:14:34;;;;;;;;;29.75;28.25;;;;;17.50;60.51;101847.44;5019886;28;45867;-76
2022/04/14 09:17:01;;;;;;;;;24.00;22.75;;;;;17.53;60.16;101847.25;5018560;28;46370;-77
2022/04/14 09:19:29;;;;;;;;;24.75;24.50;;;;;17.57;60.15;101838.88;5034351;28;45421;-77
2022/04/14 09:21:59;;;;;;;;;29.00;25.00;;;;;17.56;59.14;101838.94;5033783;28;45391;-77
2022/04/14 09:24:42;;;;;;;;;27.25;24.00;;;;;17.60;59.29;101836.00;5032798;28;46112;-75
2022/04/14 09:27:09;;;;;;;;;23.75;21.00;;;;;17.64;59.50;101842.13;5037197;28;45308;-77
2022/04/14 09:29:45;;;;;;;;;22.75;20.50;;;;;17.69;59.25;101846.31;5038898;28;45398;-78
2022/04/14 09:32:11;;;;;;;;;20.00;17.50;;;;;17.73;59.69;101838.88;5040371;28;45529;-76
2022/04/14 09:34:48;;;;;;;;;21.00;20.50;;;;;17.80;58.94;101847.53;5038103;28;46057;-76
2022/04/14 09:37:15;;;;;;;;;19.25;17.75;;;;;17.85;59.48;101853.56;5037489;28;45509;-75
2022/04/14 09:39:56;;;;;;;;;17.25;16.00;;;;;17.85;59.63;101827.31;5039067;28;45300;-76
2022/04/14 09:42:26;;;;;;;;;17.00;16.00;;;;;17.97;58.88;101833.84;5039279;28;45661;-77
2022/04/14 09:44:52;;;;;;;;;18.75;17.50;;;;;18.01;57.49;101840.84;5019802;28;46956;-77
2022/04/14 09:47:36;;;;;;;;;17.00;16.00;;;;;17.91;57.23;101812.50;5036208;28;45557;-76
2022/04/14 09:50:01;;;;;;;;;22.25;19.25;;;;;18.07;56.94;101829.63;5037845;28;45356;-75
2022/04/14 09:52:27;;;;;;;;;18.75;18.75;;;;;18.08;56.72;101824.09;5037615;28;45344;-76
2022/04/14 09:55:06;;;;;;;;;7.75;7.75;;;;;18.13;57.36;101827.41;5035156;28;45540;-77
2022/04/14 09:57:32;;;;;;;;;21.00;16.50;;;;;18.14;57.26;101828.28;5036416;28;45291;-76
2022/04/14 09:59:57;;;;;;;;;17.50;17.50;;;;;18.20;56.53;101825.22;5037143;28;45554;-82
2022/04/14 10:02:22;;;;;;;;;16.75;15.50;;;;;18.20;57.57;101825.22;5036178;28;45517;-78
2022/04/14 10:04:48;;;;;;;;;21.00;16.75;;;;;18.31;56.37;101833.56;5036422;28;45840;-79
2022/04/14 10:07:20;;;;;;;;;17.75;16.25;;;;;18.34;56.92;101822.53;5018397;28;45449;-80
2022/04/14 10:09:48;;;;;;;;;22.25;16.25;;;;;18.40;56.06;101834.84;5036712;28;45427;-77
2022/04/14 10:12:16;;;;;;;;;6.50;5.50;;;;;18.43;56.39;101830.13;5036129;28;45387;-80
2022/04/14 10:14:42;;;;;;;;;19.75;17.75;;;;;18.37;56.49;101811.47;5036695;28;46032;-79
2022/04/14 10:17:08;;;;;;;;;17.75;15.50;;;;;18.50;54.31;101817.91;5035416;28;45319;-79
2022/04/14 10:19:36;;;;;;;;;14.00;13.00;;;;;18.44;54.39;101802.00;5036489;28;45294;-80
2022/04/14 10:22:04;;;;;;;;;15.50;12.50;;;;;18.58;54.95;101822.00;5036318;28;45288;-79
2022/04/14 10:24:33;;;;;;;;;11.25;10.75;;;;;18.53;54.31;101797.84;5036143;28;46412;-80
2022/04/14 10:27:00;;;;;;;;;15.25;10.00;;;;;18.66;53.81;101814.25;5036012;28;45352;-80
2022/04/14 10:29:27;;;;;;;;;9.25;8.00;;;;;18.64;52.64;101803.47;5036481;28;45426;-80
2022/04/14 10:31:54;;;;;;;;;9.25;8.75;;;;;18.70;53.39;101800.41;5034487;28;45482;-79
2022/04/14 10:34:21;;;;;;;;;12.75;11.75;;;;;18.76;51.96;101804.56;5034251;28;45440;-79
2022/04/14 10:36:48;;;;;;;;;10.50;10.00;;;;;18.73;52.71;101792.03;5034851;28;45237;-79
2022/04/14 10:39:14;;;;;;;;;15.50;13.50;;;;;18.83;53.05;101797.75;5034574;28;45539;-79
2022/04/14 10:41:52;;;;;;;;;15.75;14.00;;;;;18.88;52.99;101811.94;5034438;28;45537;-79
2022/04/14 10:44:22;;;;;;;;;13.00;13.00;;;;;18.85;52.17;101788.56;5021867;28;46109;-80
2022/04/14 10:46:50;;;;;;;;;8.75;8.75;;;;;18.86;52.11;101782.16;5034376;28;45630;-82
2022/04/14 10:49:22;;;;;;;;;14.50;11.00;;;;;19.00;52.81;101793.97;5034674;28;46486;-80
2022/04/14 10:51:47;;;;;;;;;17.25;12.25;;;;;19.04;51.94;101785.53;5034386;28;45383;-80
2022/04/14 10:54:15;;;;;;;;;16.00;14.75;;;;;19.09;51.85;101796.97;5034639;28;45378;-79
2022/04/14 10:56:44;;;;;;;;;17.00;15.50;;;;;19.17;51.53;101794.63;5016449;28;45366;-80
2022/04/14 10:59:11;;;;;;;;;16.25;14.00;;;;;19.18;51.27;101782.78;5033468;28;45405;-82
2022/04/14 11:01:45;;;;;;;;;12.75;11.75;;;;;19.31;50.90;101793.72;5034610;28;45377;-80
2022/04/14 11:04:34;;;;;;;;;11.00;11.00;;;;;19.40;51.08;101805.81;5034590;28;45903;-79
2022/04/14 11:07:21;;;;;;;;;8.00;7.25;;;;;19.40;50.28;101782.22;5034252;28;45316;-81
2022/04/14 11:09:55;;;;;;;;;11.75;11.75;;;;;19.57;50.86;101802.91;5034044;28;45480;-78
2022/04/14 11:12:50;;;;;;;;;15.00;12.50;;;;;19.59;49.83;101793.66;5033727;28;45959;-77
2022/04/14 11:15:31;;;;;;;;;4.75;1.00;;;;;19.57;49.68;101782.00;5034171;28;46361;-79
2022/04/14 11:18:04;;;;;;;;;11.25;10.00;;;;;19.64;49.44;101804.25;5033908;28;45330;-79
2022/04/14 11:20:37;;;;;;;;;12.00;11.00;;;;;19.72;48.71;101806.47;5034371;28;45479;-77
2022/04/14 11:23:04;;;;;;;;;12.50;10.25;;;;;19.83;48.89;101804.75;5032557;28;46243;-75
2022/04/14 11:25:49;;;;;;;;;10.00;8.25;;;;;19.86;46.57;101787.34;5034145;28;45437;-76
2022/04/14 11:28:20;;;;;;;;;6.75;6.75;;;;;20.06;48.32;101802.31;5032222;28;45499;-77
2022/04/14 11:30:47;;;;;;;;;11.50;10.25;;;;;20.26;48.30;101801.78;5034895;28;45371;-76
2022/04/14 11:33:14;;;;;;;;;14.25;14.25;;;;;20.49;47.98;101803.84;5033246;28;45535;-75
2022/04/14 11:35:47;;;;;;;;;14.00;12.50;;;;;20.71;47.62;101793.13;5033742;28;46018;-77
2022/04/14 11:38:59;;;;;;;;;11.50;11.50;;;;;21.04;47.16;101797.13;5033585;28;45365;-78
2022/04/14 11:41:45;;;;;;;;;14.50;13.25;;;;;21.27;46.43;101804.50;4955444;28;45446;-75
2022/04/14 11:44:21;;;;;;;;;10.25;9.25;;;;;21.45;45.56;101799.56;5033332;28;46173;-81
2022/04/14 11:46:52;;;;;;;;;10.50;10.50;;;;;21.48;45.32;101794.75;5033592;28;46129;-76
2022/04/14 11:49:26;;;;;;;;;9.50;9.50;;;;;21.56;44.71;101785.97;5016046;28;45343;-75
2022/04/14 11:51:53;;;;;;;;;14.25;11.00;;;;;21.84;44.39;101795.69;5029913;28;45482;-74
2022/04/14 11:54:33;;;;;;;;;11.50;9.50;;;;;22.00;42.58;101790.81;5032212;28;45421;-77
2022/04/14 11:57:09;;;;;;;;;12.00;10.50;;;;;21.87;42.63;101760.81;5033081;28;45579;-76
2022/04/14 11:59:37;;;;;;;;;8.25;8.00;;;;;22.18;42.93;101786.66;5032454;28;45430;-77
2022/04/14 12:02:06;;;;;;;;;9.00;7.00;;;;;22.36;41.74;101769.81;5033035;28;45473;-76
2022/04/14 12:04:35;;;;;;;;;6.00;6.00;;;;;22.74;41.53;101784.03;5033248;28;45611;-76
2022/04/14 12:07:01;;;;;;;;;8.25;6.75;;;;;23.02;40.74;101793.63;5033430;28;46078;-76
2022/04/14 12:09:26;;;;;;;;;8.50;6.75;;;;;23.21;40.18;101771.09;5033286;28;45366;-75
2022/04/14 12:11:52;;;;;;;;;5.00;5.00;;;;;23.67;37.39;101793.66;5033302;28;45369;-76
2022/04/14 12:14:18;;;;;;;;;4.75;4.00;;;;;23.94;38.06;101774.00;5033428;28;45413;-77
2022/04/14 12:16:52;;;;;;;;;5.00;4.00;;;;;24.28;37.54;101769.25;5032183;28;46669;-77
2022/04/14 12:19:20;;;;;;;;;4.25;4.00;;;;;24.79;36.95;101777.47;5028545;28;45317;-76
2022/04/14 12:22:03;;;;;;;;;7.00;6.00;;;;;25.12;35.74;101768.09;5033257;28;45265;-76
2022/04/14 12:24:29;;;;;;;;;6.00;5.00;;;;;25.54;35.89;101782.50;5032837;28;45300;-75
2022/04/14 12:26:55;;;;;;;;;5.50;4.50;;;;;25.91;35.37;101776.38;5032149;28;47649;-75
2022/04/14 12:29:22;;;;;;;;;6.75;5.75;;;;;26.34;34.40;101775.94;5032975;28;45532;-75
2022/04/14 12:31:47;;;;;;;;;5.25;3.75;;;;;26.47;33.15;101781.09;5033001;28;45498;-77
2022/04/14 12:34:12;;;;;;;;;4.00;4.00;;;;;26.62;34.21;101761.25;5033024;28;45606;-75
2022/04/14 12:36:38;;;;;;;;;6.75;5.00;;;;;26.32;33.89;101762.31;5032594;28;45540;-75
2022/04/14 12:39:06;;;;;;;;;3.75;3.75;;;;;26.50;33.19;101773.44;5033025;28;45391;-76
2022/04/14 12:41:36;;;;;;;;;2.75;2.75;;;;;26.75;31.57;101748.00;5033301;28;45515;-76
2022/04/14 12:44:03;;;;;;;;;2.75;2.75;;;;;27.11;30.66;101756.44;5013407;28;46011;-77
2022/04/14 12:46:30;;;;;;;;;3.50;1.50;;;;;27.48;30.35;101770.09;5032562;28;45450;-76
2022/04/14 12:49:04;;;;;;;;;3.75;3.00;;;;;27.73;28.93;101763.84;5032534;28;45371;-78
2022/04/14 12:51:34;;;;;;;;;0.75;0.75;;;;;28.01;28.83;101764.66;5032426;28;45426;-76
2022/04/14 12:54:01;;;;;;;;;2.75;0.75;;;;;28.21;28.91;101762.63;5031483;28;45523;-76
2022/04/14 12:56:27;;;;;;;;;4.50;3.00;;;;;28.30;28.76;101758.91;5033981;28;45494;-77
2022/04/14 12:59:10;;;;;;;;;4.00;4.00;;;;;28.65;28.05;101752.41;5034209;28;47068;-76
2022/04/14 13:01:54;;;;;;;;;5.25;4.00;;;;;29.33;26.96;101758.78;5016597;28;45503;-76
2022/04/14 13:04:37;;;;;;;;;4.00;3.25;;;;;29.80;25.44;101751.81;5033909;28;45479;-77
2022/04/14 13:07:08;;;;;;;;;3.00;3.00;;;;;30.45;26.65;101748.03;5034126;28;45702;-75
2022/04/14 13:09:36;;;;;;;;;3.25;2.00;;;;;31.27;25.84;101745.06;5034297;28;45403;-77
2022/04/14 13:12:07;;;;;;;;;3.00;3.00;;;;;32.02;24.56;101753.56;5033822;28;45474;-77
2022/04/14 13:14:33;;;;;;;;;2.25;2.00;;;;;32.85;23.53;101757.13;5033955;28;45942;-77
2022/04/14 13:17:00;;;;;;;;;3.00;3.00;;;;;33.54;22.37;101759.56;5033793;28;46225;-76
2022/04/14 13:19:27;;;;;;;;;3.50;2.50;;;;;33.92;22.24;101751.88;5034074;28;45555;-78
2022/04/14 13:21:53;;;;;;;;;3.75;3.00;;;;;34.36;20.64;101757.25;5034161;28;45356;-76
2022/04/14 13:24:19;;;;;;;;;2.00;2.00;;;;;34.26;21.41;101753.94;5033496;28;45560;-77
2022/04/14 13:26:46;;;;;;;;;4.00;3.00;;;;;34.09;21.68;101744.97;5033392;28;46203;-77
2022/04/14 13:29:12;;;;;;;;;2.00;2.00;;;;;34.64;21.44;101744.16;5033694;28;45423;-76
2022/04/14 13:31:38;;;;;;;;;1.25;1.25;;;;;35.16;20.17;101731.59;5034161;28;45346;-76
2022/04/14 13:34:04;;;;;;;;;3.75;2.50;;;;;35.53;19.74;101741.44;5033532;28;45407;-77
2022/04/14 13:36:29;;;;;;;;;4.00;2.75;;;;;35.92;19.80;101726.72;5033504;28;46171;-76
2022/04/14 13:38:54;;;;;;;;;4.00;3.00;;;;;36.41;19.33;101736.66;5033564;28;45482;-78
2022/04/14 13:41:20;;;;;;;;;3.50;3.00;;;;;36.79;18.78;101737.66;5033862;28;45375;-77
2022/04/14 13:43:45;;;;;;;;;1.50;1.50;;;;;37.17;19.54;101737.81;5033523;28;45318;-74
2022/04/14 13:46:11;;;;;;;;;2.00;2.00;;;;;37.45;18.25;101735.50;5033543;28;45389;-74
2022/04/14 13:48:36;;;;;;;;;3.25;2.50;;;;;37.67;17.83;101727.66;5033583;28;45360;-77
2022/04/14 13:51:02;;;;;;;;;2.00;2.00;;;;;37.77;17.29;101732.78;5034171;28;45439;-72
2022/04/14 13:53:28;;;;;;;;;2.25;1.50;;;;;37.96;17.44;101725.28;5033709;28;45233;-74
2022/04/14 13:55:54;;;;;;;;;2.75;2.00;;;;;38.20;17.05;101733.72;5033342;28;45999;-75
2022/04/14 13:58:21;;;;;;;;;1.50;1.50;;;;;38.42;16.66;101730.53;5033510;28;45237;-74
2022/04/14 14:00:48;;;;;;;;;2.00;2.00;;;;;38.56;17.72;101738.59;5033297;28;45491;-75
2022/04/14 14:03:14;;;;;;;;;2.25;2.25;;;;;38.64;16.77;101739.38;5033003;28;45492;-72
2022/04/14 14:05:39;;;;;;;;;0.50;0.50;;;;;38.49;16.48;101704.16;5032815;28;46400;-75
2022/04/14 14:08:05;;;;;;;;;2.00;2.00;;;;;38.72;16.94;101717.50;5033274;28;45537;-74
2022/04/14 14:10:30;;;;;;;;;1.25;1.25;;;;;38.81;15.80;101726.47;5033607;28;45301;-73
2022/04/14 14:12:56;;;;;;;;;2.00;1.75;;;;;38.63;16.57;101698.41;5032821;28;45575;-75
2022/04/14 14:15:21;;;;;;;;;1.00;1.00;;;;;38.68;16.72;101707.88;5033508;28;45550;-75
2022/04/14 14:17:47;;;;;;;;;1.00;1.00;;;;;38.62;16.94;101719.16;5034546;28;45315;-75
2022/04/14 14:20:13;;;;;;;;;2.00;2.00;;;;;38.54;17.19;101717.47;5035266;28;45274;-76
2022/04/14 14:22:45;;;;;;;;;3.75;1.00;;;;;38.54;15.88;101718.34;5036796;28;45432;-75
2022/04/14 14:25:11;;;;;;;;;0.25;0.25;;;;;38.42;16.56;101727.72;5036708;28;47251;-74
2022/04/14 14:27:36;;;;;;;;;0.50;0.50;;;;;38.36;16.37;101721.09;5036497;28;45375;-75
2022/04/14 14:30:04;;;;;;;;;1.00;1.00;;;;;38.22;16.43;101734.34;5036792;28;45366;-74
2022/04/14 14:32:30;;;;;;;;;2.00;2.00;;;;;38.14;16.34;101725.38;5036192;28;45562;-77
2022/04/14 14:34:55;;;;;;;;;3.00;0.75;;;;;38.14;16.81;101728.19;5036680;28;45195;-76
2022/04/14 14:37:21;;;;;;;;;1.00;1.00;;;;;38.17;16.59;101719.34;5036897;28;45280;-76
2022/04/14 14:39:46;;;;;;;;;1.00;0.75;;;;;38.13;15.93;101718.06;5037196;28;45370;-73
2022/04/14 14:42:11;;;;;;;;;0.75;0.00;;;;;37.86;15.97;101717.38;5034575;28;45469;-75
2022/04/14 14:44:37;;;;;;;;;2.00;1.00;;;;;37.10;16.40;101711.75;5036599;28;45921;-73
2022/04/14 14:47:03;;;;;;;;;1.00;1.00;;;;;36.54;16.69;101726.31;5035857;28;45371;-74
2022/04/14 14:49:29;;;;;;;;;1.00;1.00;;;;;36.20;17.48;101705.06;5036185;28;45524;-76
2022/04/14 14:51:54;;;;;;;;;1.00;1.00;;;;;35.97;17.58;101710.19;5035512;28;45370;-76
2022/04/14 14:54:20;;;;;;;;;1.00;1.00;;;;;35.65;18.19;101717.41;5034985;28;46238;-74
2022/04/14 14:56:45;;;;;;;;;4.25;1.00;;;;;35.47;18.80;101709.66;5035737;28;45463;-74
2022/04/14 14:59:13;;;;;;;;;1.00;1.00;;;;;35.29;19.11;101720.56;5036400;28;46054;-74
2022/04/14 15:01:43;;;;;;;;;0.00;0.00;;;;;34.75;19.30;101723.25;5036080;28;45513;-74
2022/04/14 15:04:11;;;;;;;;;1.75;1.75;;;;;34.09;19.53;101715.22;5035672;28;45522;-75
2022/04/14 15:06:46;;;;;;;;;2.00;2.00;;;;;33.94;19.49;101720.00;5035838;28;45363;-73
2022/04/14 15:09:12;;;;;;;;;1.00;1.00;;;;;33.75;19.80;101735.47;5018116;28;45434;-74
2022/04/14 15:11:39;;;;;;;;;0.00;0.00;;;;;33.60;20.49;101723.47;5034934;28;45583;-73
2022/04/14 15:14:05;;;;;;;;;0.25;0.25;;;;;33.60;20.73;101729.03;5035646;28;46149;-74
2022/04/14 15:16:32;;;;;;;;;0.75;0.75;;;;;33.56;20.24;101718.50;5035646;28;45185;-74
2022/04/14 15:18:58;;;;;;;;;1.25;1.25;;;;;33.06;20.25;101725.81;5035516;28;45333;-74
2022/04/14 15:21:23;;;;;;;;;1.25;1.00;;;;;32.79;20.18;101720.94;5035391;28;45387;-74
2022/04/14 15:23:51;;;;;;;;;2.00;2.00;;;;;32.20;21.13;101724.50;5035911;28;45372;-74
2022/04/14 15:26:16;;;;;;;;;1.00;1.00;;;;;31.36;21.32;101705.16;5035395;28;45415;-76
2022/04/14 15:28:42;;;;;;;;;1.75;1.75;;;;;31.10;22.18;101716.56;5035278;28;45333;-77
2022/04/14 15:31:07;;;;;;;;;1.00;1.00;;;;;31.11;22.03;101721.06;5035110;28;45238;-77
2022/04/14 15:33:34;;;;;;;;;1.00;1.00;;;;;31.34;22.33;101718.34;5035510;28;45226;-75
2022/04/14 15:36:00;;;;;;;;;2.00;1.00;;;;;31.54;22.40;101712.16;5035568;28;45312;-78
2022/04/14 15:38:27;;;;;;;;;1.00;1.00;;;;;31.71;22.69;101721.25;5035782;28;45218;-75
2022/04/14 15:40:56;;;;;;;;;0.00;0.00;;;;;31.81;21.51;101716.31;5035234;28;45519;-74
2022/04/14 15:43:23;;;;;;;;;1.00;1.00;;;;;32.02;21.94;101718.38;5034774;28;46191;-77
2022/04/14 15:45:49;;;;;;;;;1.00;1.00;;;;;31.93;21.58;101698.16;5035169;28;45330;-77
2022/04/14 15:48:16;;;;;;;;;1.00;1.00;;;;;32.13;21.38;101712.38;5035273;28;45496;-76